createdAt,value
2019-03-21T00:00:12.348Z,1026.70
2019-03-21T00:01:12.349Z,1026.71
2019-03-21T00:02:12.343Z,1026.69
2019-03-21T00:03:12.344Z,1026.74
2019-03-21T00:04:12.309Z,1026.72
2019-03-21T00:05:12.294Z,1026.78
2019-03-21T00:06:12.278Z,1026.79
2019-03-21T00:07:12.277Z,1026.82
2019-03-21T00:08:12.262Z,1026.81
2019-03-21T00:09:12.293Z,1026.83
2019-03-21T00:10:12.242Z,1026.84
2019-03-21T00:11:12.231Z,1026.88
2019-03-21T00:12:12.216Z,1026.88
2019-03-21T00:13:12.211Z,1026.88
2019-03-21T00:14:12.217Z,1026.83
2019-03-21T00:15:12.191Z,1026.84
2019-03-21T00:16:13.573Z,1026.85
2019-03-21T00:17:12.159Z,1026.81
2019-03-21T00:18:12.145Z,1026.84
2019-03-21T00:19:12.173Z,1026.79
2019-03-21T00:20:12.145Z,1026.79
2019-03-21T00:21:12.122Z,1026.84
2019-03-21T00:22:12.113Z,1026.81
2019-03-21T00:23:12.096Z,1026.83
2019-03-21T00:24:12.089Z,1026.76
2019-03-21T00:25:12.126Z,1026.76
2019-03-21T00:26:12.059Z,1026.79
2019-03-21T00:27:12.058Z,1026.80
2019-03-21T00:28:12.052Z,1026.76
2019-03-21T00:29:12.033Z,1026.73
2019-03-21T00:30:12.055Z,1026.76
2019-03-21T00:31:12.005Z,1026.76
2019-03-21T00:32:11.992Z,1026.76
2019-03-21T00:33:11.993Z,1026.79
2019-03-21T00:34:11.976Z,1026.77
2019-03-21T00:35:12.008Z,1026.79
2019-03-21T00:36:11.967Z,1026.76
2019-03-21T00:37:11.941Z,1026.77
2019-03-21T00:38:11.944Z,1026.76
2019-03-21T00:39:11.927Z,1026.80
2019-03-21T00:40:11.915Z,1026.81
2019-03-21T00:41:11.930Z,1026.82
2019-03-21T00:42:11.896Z,1026.76
2019-03-21T00:43:11.874Z,1026.78
2019-03-21T00:44:18.072Z,1026.79
2019-03-21T00:45:12.855Z,1026.81
2019-03-21T00:46:11.864Z,1026.77
2019-03-21T00:47:11.862Z,1026.78
2019-03-21T00:48:11.838Z,1026.85
2019-03-21T00:49:11.801Z,1026.79
2019-03-21T00:50:11.788Z,1026.82
2019-03-21T00:51:11.787Z,1026.81
2019-03-21T00:52:11.791Z,1026.80
2019-03-21T00:53:11.768Z,1026.80
2019-03-21T00:54:11.769Z,1026.77
2019-03-21T00:55:11.737Z,1026.79
2019-03-21T00:56:11.737Z,1026.81
2019-03-21T00:57:11.741Z,1026.77
2019-03-21T00:58:11.770Z,1026.77
2019-03-21T00:59:11.703Z,1026.80
2019-03-21T01:00:11.697Z,1026.81
2019-03-21T01:01:11.692Z,1026.79
2019-03-21T01:02:11.672Z,1026.80
2019-03-21T01:03:11.670Z,1026.82
2019-03-21T01:04:11.639Z,1026.79
2019-03-21T01:05:11.641Z,1026.79
2019-03-21T01:06:11.627Z,1026.82
2019-03-21T01:07:11.606Z,1026.77
2019-03-21T01:08:11.629Z,1026.77
2019-03-21T01:09:11.581Z,1026.72
2019-03-21T01:10:11.574Z,1026.77
2019-03-21T01:11:11.583Z,1026.74
2019-03-21T01:12:11.558Z,1026.71
2019-03-21T01:13:11.552Z,1026.71
2019-03-21T01:14:11.587Z,1026.72
2019-03-21T01:15:11.521Z,1026.64
2019-03-21T01:16:11.513Z,1026.70
2019-03-21T01:17:11.497Z,1026.73
2019-03-21T01:18:11.491Z,1026.74
2019-03-21T01:19:11.508Z,1026.75
2019-03-21T01:20:11.470Z,1026.74
2019-03-21T01:21:11.459Z,1026.75
2019-03-21T01:22:11.450Z,1026.74
2019-03-21T01:23:11.456Z,1026.72
2019-03-21T01:24:11.459Z,1026.72
2019-03-21T01:25:11.423Z,1026.72
2019-03-21T01:26:11.411Z,1026.76
2019-03-21T01:27:11.383Z,1026.73
2019-03-21T01:28:11.376Z,1026.72
2019-03-21T01:29:11.397Z,1026.72
2019-03-21T01:30:11.362Z,1026.76
2019-03-21T01:31:11.352Z,1026.75
2019-03-21T01:32:11.347Z,1026.75
2019-03-21T01:33:11.332Z,1026.70
2019-03-21T01:34:11.334Z,1026.75
2019-03-21T01:35:11.320Z,1026.71
2019-03-21T01:36:11.296Z,1026.70
2019-03-21T01:37:11.307Z,1026.68
2019-03-21T01:38:11.276Z,1026.63
2019-03-21T01:39:11.262Z,1026.62
2019-03-21T01:40:11.272Z,1026.60
2019-03-21T01:41:11.233Z,1026.63
2019-03-21T01:42:11.229Z,1026.57
2019-03-21T01:43:11.218Z,1026.57
2019-03-21T01:44:11.219Z,1026.55
2019-03-21T01:45:11.200Z,1026.55
2019-03-21T01:46:11.207Z,1026.55
2019-03-21T01:47:11.192Z,1026.56
2019-03-21T01:48:11.167Z,1026.54
2019-03-21T01:49:11.140Z,1026.57
2019-03-21T01:50:11.131Z,1026.53
2019-03-21T01:51:11.170Z,1026.59
2019-03-21T01:52:11.126Z,1026.57
2019-03-21T01:53:11.097Z,1026.59
2019-03-21T01:54:11.087Z,1026.61
2019-03-21T01:55:11.537Z,1026.54
2019-03-21T01:56:11.074Z,1026.55
2019-03-21T01:57:11.097Z,1026.54
2019-03-21T01:58:11.059Z,1026.57
2019-03-21T01:59:11.034Z,1026.58
2019-03-21T02:00:11.025Z,1026.45
2019-03-21T02:01:11.023Z,1026.50
2019-03-21T02:02:11.030Z,1026.47
2019-03-21T02:03:11.021Z,1026.47
2019-03-21T02:04:10.996Z,1026.42
2019-03-21T02:05:10.982Z,1026.44
2019-03-21T02:06:10.965Z,1026.45
2019-03-21T02:07:10.945Z,1026.52
2019-03-21T02:08:10.963Z,1026.44
2019-03-21T02:09:10.940Z,1026.47
2019-03-21T02:10:10.937Z,1026.44
2019-03-21T02:11:10.904Z,1026.41
2019-03-21T02:12:10.894Z,1026.40
2019-03-21T02:13:10.881Z,1026.41
2019-03-21T02:14:10.891Z,1026.40
2019-03-21T02:15:10.865Z,1026.37
2019-03-21T02:16:10.854Z,1026.36
2019-03-21T02:17:10.849Z,1026.33
2019-03-21T02:18:10.857Z,1026.30
2019-03-21T02:19:10.840Z,1026.34
2019-03-21T02:20:10.804Z,1026.28
2019-03-21T02:21:10.793Z,1026.34
2019-03-21T02:22:10.785Z,1026.37
2019-03-21T02:23:10.811Z,1026.37
2019-03-21T02:24:10.779Z,1026.37
2019-03-21T02:25:10.751Z,1026.35
2019-03-21T02:26:10.735Z,1026.37
2019-03-21T02:27:10.739Z,1026.35
2019-03-21T02:28:10.734Z,1026.41
2019-03-21T02:29:10.749Z,1026.37
2019-03-21T02:30:10.706Z,1026.38
2019-03-21T02:31:10.698Z,1026.34
2019-03-21T02:32:10.677Z,1026.33
2019-03-21T02:33:10.692Z,1026.36
2019-03-21T02:34:10.661Z,1026.29
2019-03-21T02:35:10.673Z,1026.34
2019-03-21T02:36:10.654Z,1026.31
2019-03-21T02:37:10.631Z,1026.30
2019-03-21T02:38:10.627Z,1026.23
2019-03-21T02:39:10.596Z,1026.19
2019-03-21T02:40:10.601Z,1026.23
2019-03-21T02:41:10.597Z,1026.28
2019-03-21T02:42:10.573Z,1026.25
2019-03-21T02:43:10.556Z,1026.27
2019-03-21T02:44:10.550Z,1026.28
2019-03-21T02:45:10.588Z,1026.27
2019-03-21T02:46:10.639Z,1026.25
2019-03-21T02:47:10.526Z,1026.24
2019-03-21T02:48:10.506Z,1026.25
2019-03-21T02:49:10.498Z,1026.27
2019-03-21T02:50:10.477Z,1026.24
2019-03-21T02:51:10.470Z,1026.25
2019-03-21T02:52:10.463Z,1026.24
2019-03-21T02:53:10.479Z,1026.23
2019-03-21T02:54:10.432Z,1026.21
2019-03-21T02:55:10.437Z,1026.23
2019-03-21T02:56:10.428Z,1026.24
2019-03-21T02:57:10.418Z,1026.24
2019-03-21T02:58:10.391Z,1026.25
2019-03-21T02:59:10.393Z,1026.30
2019-03-21T03:00:10.375Z,1026.25
2019-03-21T03:01:10.411Z,1026.24
2019-03-21T03:02:10.378Z,1026.26
2019-03-21T03:03:10.333Z,1026.26
2019-03-21T03:04:10.327Z,1026.25
2019-03-21T03:05:10.316Z,1026.20
2019-03-21T03:06:10.296Z,1026.23
2019-03-21T03:07:10.301Z,1026.27
2019-03-21T03:08:10.300Z,1026.28
2019-03-21T03:09:10.274Z,1026.28
2019-03-21T03:10:10.263Z,1026.30
2019-03-21T03:11:10.952Z,1026.30
2019-03-21T03:12:10.231Z,1026.25
2019-03-21T03:13:10.269Z,1026.24
2019-03-21T03:14:10.221Z,1026.25
2019-03-21T03:15:21.983Z,1026.29
2019-03-21T03:16:11.315Z,1026.25
2019-03-21T03:17:10.179Z,1026.26
2019-03-21T03:18:10.163Z,1026.25
2019-03-21T03:19:10.198Z,1026.28
2019-03-21T03:20:10.154Z,1026.32
2019-03-21T03:21:10.146Z,1026.35
2019-03-21T03:22:10.166Z,1026.35
2019-03-21T03:23:10.107Z,1026.37
2019-03-21T03:24:10.119Z,1026.34
2019-03-21T03:25:10.095Z,1026.32
2019-03-21T03:26:10.101Z,1026.32
2019-03-21T03:27:10.075Z,1026.33
2019-03-21T03:28:10.065Z,1026.38
2019-03-21T03:29:10.067Z,1026.37
2019-03-21T03:30:10.075Z,1026.38
2019-03-21T03:31:10.042Z,1026.39
2019-03-21T03:32:10.028Z,1026.37
2019-03-21T03:33:10.014Z,1026.38
2019-03-21T03:34:10.024Z,1026.39
2019-03-21T03:35:09.979Z,1026.42
2019-03-21T03:36:09.992Z,1026.37
2019-03-21T03:37:09.976Z,1026.46
2019-03-21T03:38:09.950Z,1026.40
2019-03-21T03:39:09.964Z,1026.47
2019-03-21T03:40:09.932Z,1026.43
2019-03-21T03:41:09.921Z,1026.45
2019-03-21T03:42:09.918Z,1026.46
2019-03-21T03:43:09.892Z,1026.44
2019-03-21T03:44:09.908Z,1026.41
2019-03-21T03:45:09.899Z,1026.43
2019-03-21T03:46:09.861Z,1026.42
2019-03-21T03:47:09.859Z,1026.41
2019-03-21T03:48:09.834Z,1026.40
2019-03-21T03:49:09.820Z,1026.42
2019-03-21T03:50:09.835Z,1026.39
2019-03-21T03:51:09.807Z,1026.46
2019-03-21T03:52:09.794Z,1026.39
2019-03-21T03:53:09.789Z,1026.35
2019-03-21T03:54:09.777Z,1026.38
2019-03-21T03:55:09.767Z,1026.41
2019-03-21T03:56:09.764Z,1026.42
2019-03-21T03:57:09.731Z,1026.41
2019-03-21T03:58:09.751Z,1026.41
2019-03-21T03:59:09.722Z,1026.46
2019-03-21T04:00:09.729Z,1026.43
2019-03-21T04:01:09.714Z,1026.41
2019-03-21T04:02:09.709Z,1026.47
2019-03-21T04:03:09.686Z,1026.50
2019-03-21T04:04:09.665Z,1026.47
2019-03-21T04:05:09.659Z,1026.47
2019-03-21T04:06:09.648Z,1026.44
2019-03-21T04:07:09.627Z,1026.46
2019-03-21T04:08:09.633Z,1026.45
2019-03-21T04:09:09.599Z,1026.46
2019-03-21T04:10:09.586Z,1026.45
2019-03-21T04:11:09.593Z,1026.46
2019-03-21T04:12:09.597Z,1026.48
2019-03-21T04:13:09.576Z,1026.45
2019-03-21T04:14:09.552Z,1026.46
2019-03-21T04:15:09.535Z,1026.42
2019-03-21T04:16:09.523Z,1026.46
2019-03-21T04:17:09.541Z,1026.50
2019-03-21T04:18:09.516Z,1026.51
2019-03-21T04:19:09.494Z,1026.52
2019-03-21T04:20:09.478Z,1026.47
2019-03-21T04:21:09.487Z,1026.54
2019-03-21T04:22:09.593Z,1026.48
2019-03-21T04:23:09.465Z,1026.51
2019-03-21T04:24:09.444Z,1026.50
2019-03-21T04:25:09.434Z,1026.51
2019-03-21T04:26:09.444Z,1026.50
2019-03-21T04:27:09.426Z,1026.45
2019-03-21T04:28:09.393Z,1026.45
2019-03-21T04:29:09.385Z,1026.46
2019-03-21T04:30:09.367Z,1026.49
2019-03-21T04:31:09.370Z,1026.47
2019-03-21T04:32:09.360Z,1026.49
2019-03-21T04:33:09.363Z,1026.51
2019-03-21T04:34:09.328Z,1026.53
2019-03-21T04:35:09.325Z,1026.56
2019-03-21T04:36:09.308Z,1026.54
2019-03-21T04:37:09.303Z,1026.58
2019-03-21T04:38:09.282Z,1026.56
2019-03-21T04:39:09.291Z,1026.59
2019-03-21T04:40:09.287Z,1026.56
2019-03-21T04:41:09.256Z,1026.55
2019-03-21T04:42:09.240Z,1026.55
2019-03-21T04:43:09.231Z,1026.48
2019-03-21T04:44:09.237Z,1026.49
2019-03-21T04:45:09.215Z,1026.53
2019-03-21T04:46:09.202Z,1026.48
2019-03-21T04:47:09.186Z,1026.52
2019-03-21T04:48:09.165Z,1026.49
2019-03-21T04:49:09.209Z,1026.49
2019-03-21T04:50:09.185Z,1026.50
2019-03-21T04:51:09.146Z,1026.52
2019-03-21T04:52:09.136Z,1026.55
2019-03-21T04:53:09.116Z,1026.50
2019-03-21T04:54:09.109Z,1026.56
2019-03-21T04:55:09.125Z,1026.55
2019-03-21T04:56:09.096Z,1026.52
2019-03-21T04:57:09.083Z,1026.59
2019-03-21T04:58:09.067Z,1026.60
2019-03-21T04:59:09.051Z,1026.58
2019-03-21T05:00:09.079Z,1026.54
2019-03-21T05:01:09.025Z,1026.57
2019-03-21T05:02:09.026Z,1026.56
2019-03-21T05:03:09.021Z,1026.53
2019-03-21T05:04:09.001Z,1026.54
2019-03-21T05:05:08.988Z,1026.51
2019-03-21T05:06:08.989Z,1026.53
2019-03-21T05:07:09.020Z,1026.52
2019-03-21T05:08:08.969Z,1026.54
2019-03-21T05:09:08.953Z,1026.59
2019-03-21T05:10:08.939Z,1026.59
2019-03-21T05:11:08.929Z,1026.56
2019-03-21T05:12:08.903Z,1026.61
2019-03-21T05:13:08.894Z,1026.56
2019-03-21T05:14:08.880Z,1026.59
2019-03-21T05:15:08.884Z,1026.63
2019-03-21T05:16:14.627Z,1026.62
2019-03-21T05:17:09.854Z,1026.66
2019-03-21T05:18:08.848Z,1026.64
2019-03-21T05:19:08.830Z,1026.61
2019-03-21T05:20:08.828Z,1026.64
2019-03-21T05:21:08.821Z,1026.65
2019-03-21T05:22:08.822Z,1026.60
2019-03-21T05:23:08.785Z,1026.58
2019-03-21T05:24:08.776Z,1026.61
2019-03-21T05:25:08.764Z,1026.63
2019-03-21T05:26:08.746Z,1026.59
2019-03-21T05:27:08.800Z,1026.60
2019-03-21T05:28:08.742Z,1026.62
2019-03-21T05:29:08.739Z,1026.52
2019-03-21T05:30:08.719Z,1026.58
2019-03-21T05:31:08.689Z,1026.55
2019-03-21T05:32:08.684Z,1026.57
2019-03-21T05:33:08.706Z,1026.56
2019-03-21T05:34:08.667Z,1026.58
2019-03-21T05:35:08.660Z,1026.56
2019-03-21T05:36:08.658Z,1026.56
2019-03-21T05:37:08.637Z,1026.56
2019-03-21T05:38:08.625Z,1026.62
2019-03-21T05:39:08.637Z,1026.61
2019-03-21T05:40:08.630Z,1026.64
2019-03-21T05:41:08.598Z,1026.64
2019-03-21T05:42:08.594Z,1026.64
2019-03-21T05:43:08.573Z,1026.59
2019-03-21T05:44:08.573Z,1026.63
2019-03-21T05:45:08.555Z,1026.56
2019-03-21T05:46:08.548Z,1026.61
2019-03-21T05:47:08.526Z,1026.58
2019-03-21T05:48:08.507Z,1026.59
2019-03-21T05:49:08.526Z,1026.59
2019-03-21T05:50:08.490Z,1026.58
2019-03-21T05:51:08.484Z,1026.59
2019-03-21T05:52:08.476Z,1026.58
2019-03-21T05:53:08.452Z,1026.62
2019-03-21T05:54:08.448Z,1026.65
2019-03-21T05:55:08.460Z,1026.65
2019-03-21T05:56:08.432Z,1026.67
2019-03-21T05:57:08.421Z,1026.69
2019-03-21T05:58:08.402Z,1026.68
2019-03-21T05:59:08.418Z,1026.70
2019-03-21T06:00:08.416Z,1026.75
2019-03-21T06:01:08.364Z,1026.71
2019-03-21T06:02:08.366Z,1026.69
2019-03-21T06:03:08.358Z,1026.71
2019-03-21T06:04:08.340Z,1026.70
2019-03-21T06:05:08.351Z,1026.70
2019-03-21T06:06:08.321Z,1026.73
2019-03-21T06:07:08.312Z,1026.74
2019-03-21T06:08:08.293Z,1026.76
2019-03-21T06:09:08.316Z,1026.77
2019-03-21T06:10:08.277Z,1026.80
2019-03-21T06:11:08.263Z,1026.72
2019-03-21T06:12:08.247Z,1026.72
2019-03-21T06:13:08.240Z,1026.78
2019-03-21T06:14:08.235Z,1026.78
2019-03-21T06:15:08.235Z,1026.78
2019-03-21T06:16:08.214Z,1026.77
2019-03-21T06:17:08.206Z,1026.77
2019-03-21T06:18:08.193Z,1026.82
2019-03-21T06:19:08.167Z,1026.80
2019-03-21T06:20:08.177Z,1026.82
2019-03-21T06:21:08.148Z,1026.84
2019-03-21T06:22:08.141Z,1026.85
2019-03-21T06:23:08.135Z,1026.88
2019-03-21T06:24:08.122Z,1026.92
2019-03-21T06:25:08.140Z,1026.93
2019-03-21T06:26:08.092Z,1026.89
2019-03-21T06:27:14.489Z,1026.90
2019-03-21T06:28:09.106Z,1026.91
2019-03-21T06:29:08.065Z,1026.92
2019-03-21T06:30:08.054Z,1026.94
2019-03-21T06:31:08.053Z,1026.93
2019-03-21T06:32:08.029Z,1026.91
2019-03-21T06:33:08.013Z,1026.91
2019-03-21T06:34:07.998Z,1026.95
2019-03-21T06:35:08.033Z,1026.96
2019-03-21T06:36:08.023Z,1026.98
2019-03-21T06:37:07.981Z,1027.01
2019-03-21T06:38:07.971Z,1026.97
2019-03-21T06:39:07.958Z,1027.03
2019-03-21T06:40:07.941Z,1027.04
2019-03-21T06:41:07.940Z,1027.05
2019-03-21T06:42:07.962Z,1027.06
2019-03-21T06:43:07.917Z,1027.02
2019-03-21T06:44:07.904Z,1027.04
2019-03-21T06:45:07.877Z,1027.05
2019-03-21T06:46:07.877Z,1027.09
2019-03-21T06:47:07.902Z,1027.13
2019-03-21T06:48:07.862Z,1027.11
2019-03-21T06:49:07.887Z,1027.12
2019-03-21T06:50:07.836Z,1027.14
2019-03-21T06:51:07.818Z,1027.14
2019-03-21T06:52:07.819Z,1027.16
2019-03-21T06:53:07.799Z,1027.20
2019-03-21T06:54:07.802Z,1027.18
2019-03-21T06:55:07.793Z,1027.18
2019-03-21T06:56:07.770Z,1027.17
2019-03-21T06:57:07.752Z,1027.18
2019-03-21T06:58:07.757Z,1027.18
2019-03-21T06:59:07.771Z,1027.19
2019-03-21T07:00:07.775Z,1027.15
2019-03-21T07:01:07.731Z,1027.15
2019-03-21T07:02:07.721Z,1027.19
2019-03-21T07:03:07.700Z,1027.21
2019-03-21T07:04:07.752Z,1027.24
2019-03-21T07:05:07.705Z,1027.18
2019-03-21T07:06:07.685Z,1027.19
2019-03-21T07:07:08.665Z,1027.23
2019-03-21T07:08:07.645Z,1027.18
2019-03-21T07:09:07.622Z,1027.22
2019-03-21T07:10:07.649Z,1027.17
2019-03-21T07:11:07.598Z,1027.19
2019-03-21T07:12:07.590Z,1027.21
2019-03-21T07:13:07.582Z,1027.23
2019-03-21T07:14:07.577Z,1027.27
2019-03-21T07:15:07.548Z,1027.24
2019-03-21T07:16:09.423Z,1027.27
2019-03-21T07:17:07.532Z,1027.28
2019-03-21T07:18:07.526Z,1027.31
2019-03-21T07:19:07.512Z,1027.34
2019-03-21T07:20:07.507Z,1027.34
2019-03-21T07:21:07.527Z,1027.33
2019-03-21T07:22:07.488Z,1027.34
2019-03-21T07:23:07.461Z,1027.36
2019-03-21T07:24:07.456Z,1027.35
2019-03-21T07:25:07.439Z,1027.40
2019-03-21T07:26:07.427Z,1027.35
2019-03-21T07:27:07.449Z,1027.38
2019-03-21T07:28:07.458Z,1027.39
2019-03-21T07:29:07.436Z,1027.35
2019-03-21T07:30:07.555Z,1027.40
2019-03-21T07:31:07.379Z,1027.40
2019-03-21T07:32:08.254Z,1027.42
2019-03-21T07:33:07.359Z,1027.46
2019-03-21T07:34:07.354Z,1027.43
2019-03-21T07:35:07.334Z,1027.45
2019-03-21T07:36:07.321Z,1027.44
2019-03-21T07:37:07.338Z,1027.48
2019-03-21T07:38:07.311Z,1027.47
2019-03-21T07:39:07.307Z,1027.49
2019-03-21T07:40:07.296Z,1027.48
2019-03-21T07:41:07.274Z,1027.45
2019-03-21T07:42:07.290Z,1027.50
2019-03-21T07:43:07.275Z,1027.51
2019-03-21T07:44:07.239Z,1027.54
2019-03-21T07:45:07.234Z,1027.51
2019-03-21T07:46:07.216Z,1027.52
2019-03-21T07:47:12.749Z,1027.54
2019-03-21T07:48:08.185Z,1027.56
2019-03-21T07:49:07.175Z,1027.57
2019-03-21T07:50:07.175Z,1027.61
2019-03-21T07:51:07.190Z,1027.57
2019-03-21T07:52:07.153Z,1027.60
2019-03-21T07:53:07.168Z,1027.60
2019-03-21T07:54:07.149Z,1027.61
2019-03-21T07:55:07.120Z,1027.61
2019-03-21T07:56:07.110Z,1027.60
2019-03-21T07:57:07.103Z,1027.60
2019-03-21T07:58:07.189Z,1027.55
2019-03-21T07:59:07.081Z,1027.58
2019-03-21T08:00:07.062Z,1027.61
2019-03-21T08:01:07.053Z,1027.64
2019-03-21T08:02:07.026Z,1027.66
2019-03-21T08:03:07.082Z,1027.58
2019-03-21T08:04:07.024Z,1027.65
2019-03-21T08:05:07.005Z,1027.69
2019-03-21T08:06:07.001Z,1027.60
2019-03-21T08:07:06.995Z,1027.55
2019-03-21T08:08:06.974Z,1027.57
2019-03-21T08:09:06.970Z,1027.57
2019-03-21T08:10:06.944Z,1027.56
2019-03-21T08:11:06.934Z,1027.53
2019-03-21T08:12:06.929Z,1027.56
2019-03-21T08:13:06.927Z,1027.57
2019-03-21T08:14:06.951Z,1027.58
2019-03-21T08:15:06.895Z,1027.61
2019-03-21T08:16:06.869Z,1027.58
2019-03-21T08:17:06.878Z,1027.59
2019-03-21T08:18:06.875Z,1027.57
2019-03-21T08:19:06.854Z,1027.58
2019-03-21T08:20:06.830Z,1027.62
2019-03-21T08:21:06.822Z,1027.61
2019-03-21T08:22:06.816Z,1027.57
2019-03-21T08:23:06.812Z,1027.61
2019-03-21T08:24:06.828Z,1027.67
2019-03-21T08:25:06.811Z,1027.61
2019-03-21T08:26:06.789Z,1027.61
2019-03-21T08:27:06.774Z,1027.66
2019-03-21T08:28:06.775Z,1027.67
2019-03-21T08:29:06.729Z,1027.68
2019-03-21T08:30:06.752Z,1027.69
2019-03-21T08:31:06.728Z,1027.72
2019-03-21T08:32:06.712Z,1027.72
2019-03-21T08:33:06.684Z,1027.73
2019-03-21T08:34:06.682Z,1027.72
2019-03-21T08:35:06.678Z,1027.72
2019-03-21T08:36:06.673Z,1027.79
2019-03-21T08:37:06.666Z,1027.75
2019-03-21T08:38:06.643Z,1027.80
2019-03-21T08:39:06.636Z,1027.75
2019-03-21T08:40:06.614Z,1027.80
2019-03-21T08:41:06.627Z,1027.76
2019-03-21T08:42:06.586Z,1027.74
2019-03-21T08:43:06.582Z,1027.81
2019-03-21T08:44:06.589Z,1027.80
2019-03-21T08:45:06.556Z,1027.83
2019-03-21T08:46:06.580Z,1027.84
2019-03-21T08:47:06.556Z,1027.84
2019-03-21T08:48:06.523Z,1027.82
2019-03-21T08:49:06.513Z,1027.85
2019-03-21T08:50:06.514Z,1027.78
2019-03-21T08:51:08.583Z,1027.77
2019-03-21T08:52:06.495Z,1027.75
2019-03-21T08:53:06.459Z,1027.77
2019-03-21T08:54:06.453Z,1027.74
2019-03-21T08:55:06.452Z,1027.75
2019-03-21T08:56:06.447Z,1027.73
2019-03-21T08:57:06.450Z,1027.75
2019-03-21T08:58:06.417Z,1027.74
2019-03-21T08:59:06.394Z,1027.71
2019-03-21T09:00:06.401Z,1027.72
2019-03-21T09:01:06.372Z,1027.74
2019-03-21T09:02:06.406Z,1027.70
2019-03-21T09:03:06.374Z,1027.69
2019-03-21T09:04:06.350Z,1027.76
2019-03-21T09:05:06.326Z,1027.74
2019-03-21T09:06:06.322Z,1027.72
2019-03-21T09:07:06.325Z,1027.78
2019-03-21T09:08:06.339Z,1027.77
2019-03-21T09:09:06.293Z,1027.76
2019-03-21T09:10:08.017Z,1027.77
2019-03-21T09:11:06.271Z,1027.74
2019-03-21T09:12:06.259Z,1027.72
2019-03-21T09:13:06.275Z,1027.73
2019-03-21T09:14:06.236Z,1027.75
2019-03-21T09:15:08.119Z,1027.73
2019-03-21T09:16:06.222Z,1027.77
2019-03-21T09:17:06.211Z,1027.77
2019-03-21T09:18:06.194Z,1027.76
2019-03-21T09:19:06.296Z,1027.78
2019-03-21T09:20:06.161Z,1027.78
2019-03-21T09:21:06.164Z,1027.83
2019-03-21T09:22:06.173Z,1027.78
2019-03-21T09:23:06.148Z,1027.76
2019-03-21T09:24:06.371Z,1027.75
2019-03-21T09:25:06.149Z,1027.76
2019-03-21T09:26:06.100Z,1027.76
2019-03-21T09:27:06.103Z,1027.74
2019-03-21T09:28:06.081Z,1027.74
2019-03-21T09:29:06.080Z,1027.77
2019-03-21T09:30:06.065Z,1027.79
2019-03-21T09:31:06.072Z,1027.75
2019-03-21T09:32:06.040Z,1027.74
2019-03-21T09:33:06.017Z,1027.75
2019-03-21T09:34:06.011Z,1027.78
2019-03-21T09:35:06.012Z,1027.77
2019-03-21T09:36:06.034Z,1027.72
2019-03-21T09:37:05.988Z,1027.73
2019-03-21T09:38:05.972Z,1027.74
2019-03-21T09:39:05.957Z,1027.68
2019-03-21T09:40:05.952Z,1027.66
2019-03-21T09:41:05.936Z,1027.70
2019-03-21T09:42:05.954Z,1027.73
2019-03-21T09:43:05.907Z,1027.67
2019-03-21T09:44:05.892Z,1027.67
2019-03-21T09:45:05.890Z,1027.66
2019-03-21T09:46:05.879Z,1027.67
2019-03-21T09:47:05.908Z,1027.72
2019-03-21T09:48:05.866Z,1027.69
2019-03-21T09:49:05.856Z,1027.61
2019-03-21T09:50:05.843Z,1027.64
2019-03-21T09:51:05.822Z,1027.67
2019-03-21T09:52:05.828Z,1027.63
2019-03-21T09:53:05.834Z,1027.63
2019-03-21T09:54:09.927Z,1027.61
2019-03-21T09:55:05.783Z,1027.63
2019-03-21T09:56:05.761Z,1027.65
2019-03-21T09:57:05.750Z,1027.67
2019-03-21T09:58:05.784Z,1027.68
2019-03-21T09:59:05.743Z,1027.68
2019-03-21T10:00:05.736Z,1027.65
2019-03-21T10:01:05.801Z,1027.67
2019-03-21T10:02:05.737Z,1027.66
2019-03-21T10:03:05.748Z,1027.68
2019-03-21T10:04:05.706Z,1027.68
2019-03-21T10:05:05.668Z,1027.68
2019-03-21T10:06:05.664Z,1027.66
2019-03-21T10:07:05.663Z,1027.65
2019-03-21T10:08:05.646Z,1027.63
2019-03-21T10:09:05.644Z,1027.67
2019-03-21T10:10:05.619Z,1027.56
2019-03-21T10:11:05.605Z,1027.58
2019-03-21T10:12:05.602Z,1027.65
2019-03-21T10:13:05.683Z,1027.65
2019-03-21T10:14:05.603Z,1027.61
2019-03-21T10:15:05.563Z,1027.63
2019-03-21T10:16:05.543Z,1027.62
2019-03-21T10:17:05.543Z,1027.62
2019-03-21T10:18:05.545Z,1027.62
2019-03-21T10:19:05.521Z,1027.62
2019-03-21T10:20:05.518Z,1027.65
2019-03-21T10:21:05.530Z,1027.62
2019-03-21T10:22:05.510Z,1027.60
2019-03-21T10:23:05.473Z,1027.58
2019-03-21T10:24:05.483Z,1027.60
2019-03-21T10:25:05.462Z,1027.56
2019-03-21T10:26:05.452Z,1027.63
2019-03-21T10:27:05.580Z,1027.62
2019-03-21T10:28:05.429Z,1027.54
2019-03-21T10:29:05.406Z,1027.60
2019-03-21T10:30:05.395Z,1027.61
2019-03-21T10:31:05.393Z,1027.64
2019-03-21T10:32:13.858Z,1027.60
2019-03-21T10:33:06.492Z,1027.60
2019-03-21T10:34:05.366Z,1027.64
2019-03-21T10:35:05.366Z,1027.64
2019-03-21T10:36:05.331Z,1027.62
2019-03-21T10:37:05.315Z,1027.62
2019-03-21T10:38:05.335Z,1027.63
2019-03-21T10:39:05.304Z,1027.62
2019-03-21T10:40:05.303Z,1027.66
2019-03-21T10:41:05.281Z,1027.63
2019-03-21T10:42:05.263Z,1027.61
2019-03-21T10:43:05.343Z,1027.62
2019-03-21T10:44:05.255Z,1027.59
2019-03-21T10:45:05.240Z,1027.61
2019-03-21T10:46:05.238Z,1027.59
2019-03-21T10:47:05.215Z,1027.61
2019-03-21T10:48:05.193Z,1027.61
2019-03-21T10:49:05.218Z,1027.58
2019-03-21T10:50:05.201Z,1027.60
2019-03-21T10:51:05.168Z,1027.59
2019-03-21T10:52:05.165Z,1027.57
2019-03-21T10:53:05.152Z,1027.57
2019-03-21T10:54:05.168Z,1027.57
2019-03-21T10:55:05.140Z,1027.56
2019-03-21T10:56:05.107Z,1027.56
2019-03-21T10:57:05.113Z,1027.60
2019-03-21T10:58:05.107Z,1027.63
2019-03-21T10:59:05.073Z,1027.58
2019-03-21T11:00:05.095Z,1027.60
2019-03-21T11:01:05.071Z,1027.55
2019-03-21T11:02:07.468Z,1027.54
2019-03-21T11:03:05.044Z,1027.57
2019-03-21T11:04:05.068Z,1027.56
2019-03-21T11:05:05.026Z,1027.59
2019-03-21T11:06:05.028Z,1027.56
2019-03-21T11:07:04.996Z,1027.60
2019-03-21T11:08:04.981Z,1027.52
2019-03-21T11:09:04.982Z,1027.57
2019-03-21T11:10:04.956Z,1027.58
2019-03-21T11:11:04.990Z,1027.57
2019-03-21T11:12:04.956Z,1027.56
2019-03-21T11:13:04.918Z,1027.52
2019-03-21T11:14:04.993Z,1027.55
2019-03-21T11:15:04.908Z,1027.56
2019-03-21T11:16:04.934Z,1027.52
2019-03-21T11:17:04.976Z,1027.54
2019-03-21T11:18:04.889Z,1027.55
2019-03-21T11:19:04.866Z,1027.57
2019-03-21T11:20:04.902Z,1027.52
2019-03-21T11:21:04.836Z,1027.52
2019-03-21T11:22:06.584Z,1027.51
2019-03-21T11:23:04.818Z,1027.43
2019-03-21T11:24:04.803Z,1027.46
2019-03-21T11:25:04.805Z,1027.45
2019-03-21T11:26:04.783Z,1027.42
2019-03-21T11:27:04.796Z,1027.43
2019-03-21T11:28:04.758Z,1027.37
2019-03-21T11:29:04.752Z,1027.36
2019-03-21T11:30:15.443Z,1027.36
2019-03-21T11:31:05.719Z,1027.33
2019-03-21T11:32:04.714Z,1027.34
2019-03-21T11:33:04.725Z,1027.33
2019-03-21T11:34:04.691Z,1027.32
2019-03-21T11:35:04.685Z,1027.30
2019-03-21T11:36:04.673Z,1027.40
2019-03-21T11:37:04.664Z,1027.33
2019-03-21T11:38:04.691Z,1027.28
2019-03-21T11:39:04.643Z,1027.30
2019-03-21T11:40:04.618Z,1027.29
2019-03-21T11:41:04.615Z,1027.27
2019-03-21T11:42:04.618Z,1027.32
2019-03-21T11:43:04.614Z,1027.27
2019-03-21T11:44:04.625Z,1027.24
2019-03-21T11:45:04.560Z,1027.27
2019-03-21T11:46:04.572Z,1027.26
2019-03-21T11:47:04.558Z,1027.20
2019-03-21T11:48:04.555Z,1027.28
2019-03-21T11:49:04.534Z,1027.26
2019-03-21T11:50:04.537Z,1027.26
2019-03-21T11:51:04.512Z,1027.19
2019-03-21T11:52:04.493Z,1027.31
2019-03-21T11:53:04.477Z,1027.26
2019-03-21T11:54:04.458Z,1027.31
2019-03-21T11:55:04.503Z,1027.28
2019-03-21T11:56:04.451Z,1027.28
2019-03-21T11:57:04.460Z,1027.29
2019-03-21T11:58:04.431Z,1027.21
2019-03-21T11:59:04.419Z,1027.28
2019-03-21T12:00:04.418Z,1027.29
2019-03-21T12:01:04.410Z,1027.29
2019-03-21T12:02:04.391Z,1027.25
2019-03-21T12:03:04.520Z,1027.28
2019-03-21T12:04:04.363Z,1027.26
2019-03-21T12:05:04.342Z,1027.27